Time;durP1;ratioP1;P1;durP2;ratioP2;P2;SDS_P1;SDS_P2;PMS_P1;PMS_P2;Temp;Humidity;BMP_temperature;BMP_pressure;BME280_temperature;BME280_humidity;BME280_pressure;Samples;Min_cycle;Max_cycle;Signal;HPM_P1;HPM_P2
2021/05/16 00:00:47;;;;;;;11.57;7.63;;;8.60;99.90;;;;;;6206368;22;20021;-94
2021/05/16 00:03:17;;;;;;;10.77;7.65;;;8.60;99.90;;;;;;6239594;23;20026;-95
2021/05/16 00:05:52;;;;;;;11.80;8.68;;;8.60;99.90;;;;;;6241525;23;20016;-96
2021/05/16 00:08:24;;;;;;;11.82;8.55;;;8.70;99.90;;;;;;6219994;23;20015;-96
2021/05/16 01:28:33;;;;;;;15.25;9.95;;;8.40;99.90;;;;;;6240550;22;20039;-95
2021/05/16 01:31:00;;;;;;;15.48;10.38;;;8.30;99.90;;;;;;6218922;23;20052;-95
2021/05/16 02:12:35;;;;;;;18.27;8.25;;;8.10;99.90;;;;;;6210347;22;19923;-95
2021/05/16 02:15:35;;;;;;;12.18;8.07;;;8.10;99.90;;;;;;6242029;23;20012;-95
2021/05/16 02:18:08;;;;;;;11.40;7.05;;;8.10;99.90;;;;;;6239588;23;20012;-95
2021/05/16 02:20:40;;;;;;;10.07;6.65;;;8.10;99.90;;;;;;6266263;23;19996;-95
2021/05/16 02:23:09;;;;;;;13.38;7.25;;;8.00;99.90;;;;;;6240049;23;20019;-96
2021/05/16 02:25:41;;;;;;;11.60;6.60;;;8.00;99.90;;;;;;6264607;23;20000;-95
2021/05/16 02:28:17;;;;;;;11.13;6.18;;;8.00;99.90;;;;;;6264581;23;20004;-95
2021/05/16 02:30:51;;;;;;;11.40;6.07;;;8.00;99.90;;;;;;6210181;23;20073;-95
2021/05/16 02:33:22;;;;;;;11.30;6.15;;;8.00;99.90;;;;;;6239196;23;20011;-95
2021/05/16 02:35:57;;;;;;;;;;;8.00;99.90;;;;;;6238402;23;20003;-96
2021/05/16 02:38:25;;;;;;;12.43;6.80;;;8.00;99.90;;;;;;6236019;23;19917;-95
2021/05/16 02:41:05;;;;;;;11.93;7.70;;;8.00;99.90;;;;;;6236142;23;19996;-95
2021/05/16 03:10:01;;;;;;;15.38;7.15;;;7.70;99.90;;;;;;6238020;22;20247;-96
2021/05/16 03:12:32;;;;;;;10.85;6.70;;;7.70;99.90;;;;;;6244705;23;20004;-95
2021/05/16 03:43:09;;;;;;;27.55;8.43;;;7.20;99.90;;;;;;6241198;22;20039;-94
2021/05/16 03:48:39;;;;;;;30.83;8.52;;;7.20;99.90;;;;;;6214157;23;20007;-93
2021/05/16 04:26:47;;;;;;;13.73;6.97;;;6.70;99.90;;;;;;6267250;22;20041;-95
2021/05/16 04:29:25;;;;;;;16.52;6.70;;;6.70;99.90;;;;;;6247714;23;20011;-95
2021/05/16 04:31:53;;;;;;;16.23;7.20;;;6.70;99.90;;;;;;6272981;22;20030;-95
2021/05/16 04:34:23;;;;;;;13.63;6.72;;;6.70;99.90;;;;;;6272843;22;20000;-95
2021/05/16 04:37:15;;;;;;;17.05;6.43;;;6.70;99.90;;;;;;6270723;22;20007;-96
2021/05/16 04:40:31;;;;;;;13.23;6.57;;;6.70;99.90;;;;;;6246140;22;20015;-95
2021/05/16 04:46:59;;;;;;;17.90;7.60;;;6.60;99.90;;;;;;6206804;22;20032;-95
2021/05/16 04:49:30;;;;;;;15.45;7.25;;;6.60;99.90;;;;;;6184991;23;20005;-95
2021/05/16 04:51:58;;;;;;;16.55;6.40;;;6.60;99.90;;;;;;6162477;23;20001;-95
2021/05/16 04:54:29;;;;;;;28.60;7.75;;;6.50;99.90;;;;;;6158734;23;20033;-94
2021/05/16 04:57:06;;;;;;;26.02;7.55;;;6.50;99.90;;;;;;6208413;23;20178;-94
2021/05/16 04:59:41;;;;;;;20.60;7.60;;;6.50;99.90;;;;;;6179206;23;20029;-94
2021/05/16 05:02:09;;;;;;;33.50;7.75;;;6.50;99.90;;;;;;6183839;23;20009;-95
2021/05/16 05:04:45;;;;;;;27.40;7.53;;;6.50;99.90;;;;;;6211976;23;20072;-96
2021/05/16 05:12:29;;;;;;;21.90;6.47;;;6.40;99.90;;;;;;6222695;23;20020;-94
2021/05/16 05:15:03;;;;;;;13.95;5.68;;;6.40;99.90;;;;;;6215137;23;20013;-95
2021/05/16 05:17:30;;;;;;;25.63;6.18;;;6.40;99.90;;;;;;6227815;23;20017;-93
2021/05/16 05:19:57;;;;;;;26.98;6.43;;;6.40;99.90;;;;;;6203495;23;20004;-93
2021/05/16 05:22:29;;;;;;;31.05;6.45;;;6.30;99.90;;;;;;6203358;23;20007;-95
2021/05/16 05:24:55;;;;;;;33.05;8.10;;;6.40;99.90;;;;;;6204074;23;20008;-95
2021/05/16 05:27:25;;;;;;;30.15;7.53;;;6.40;99.90;;;;;;6203382;23;20009;-95
2021/05/16 05:30:23;;;;;;;21.88;7.22;;;6.40;99.90;;;;;;6214321;23;20005;-96
2021/05/16 05:33:29;;;;;;;29.33;6.20;;;6.40;99.90;;;;;;6238034;23;20005;-96
2021/05/16 05:36:13;;;;;;;16.63;7.20;;;6.40;99.90;;;;;;6236189;23;20000;-95
2021/05/16 05:38:48;;;;;;;32.97;7.22;;;6.50;99.90;;;;;;6237887;23;20020;-94
2021/05/16 05:41:28;;;;;;;34.10;8.00;;;6.50;99.90;;;;;;6210010;23;20448;-96
2021/05/16 05:43:57;;;;;;;65.22;7.63;;;6.50;99.90;;;;;;6221571;23;20004;-96
2021/05/16 05:46:29;;;;;;;37.25;7.45;;;6.60;99.90;;;;;;6211276;23;20009;-96
2021/05/16 05:49:10;;;;;;;66.32;8.30;;;6.60;99.90;;;;;;6186297;23;20009;-96
2021/05/16 05:52:02;;;;;;;;;;;;;;;;;;;;;
2021/05/16 05:54:38;;;;;;;31.13;7.43;;;6.60;99.90;;;;;;6232970;23;20000;-96
2021/05/16 05:57:39;;;;;;;36.15;6.53;;;6.60;99.90;;;;;;6214446;23;20096;-96
2021/05/16 06:00:46;;;;;;;36.35;8.55;;;6.60;99.90;;;;;;6095563;23;20022;-96
2021/05/16 06:03:59;;;;;;;38.30;7.78;;;6.60;99.90;;;;;;6214182;23;20003;-95
2021/05/16 06:06:47;;;;;;;59.90;7.10;;;6.60;99.90;;;;;;6242880;23;19981;-96
2021/05/16 06:10:02;;;;;;;60.95;7.25;;;6.60;99.90;;;;;;6235211;23;20024;-96
2021/05/16 06:12:30;;;;;;;137.25;8.35;;;6.60;99.90;;;;;;6183324;23;20021;-95
2021/05/16 06:14:59;;;;;;;43.15;7.50;;;6.60;99.90;;;;;;6205100;23;20001;-95
2021/05/16 06:17:31;;;;;;;55.03;8.87;;;6.60;99.90;;;;;;6228755;23;20036;-95
2021/05/16 06:20:02;;;;;;;96.78;8.77;;;6.60;99.90;;;;;;6206994;23;20060;-96
2021/05/16 06:22:29;;;;;;;33.85;7.18;;;6.70;99.90;;;;;;6205961;23;20000;-95
2021/05/16 06:25:16;;;;;;;23.98;8.25;;;6.70;99.90;;;;;;6202000;23;20008;-94
2021/05/16 06:27:43;;;;;;;26.67;7.07;;;6.80;99.90;;;;;;6203571;23;20011;-95
2021/05/16 06:30:14;;;;;;;45.97;7.35;;;6.90;99.90;;;;;;6204603;23;20066;-95
2021/05/16 06:41:12;;;;;;;19.27;6.95;;;7.20;99.90;;;;;;6236861;23;20067;-96
2021/05/16 06:43:38;;;;;;;18.88;7.47;;;7.20;99.90;;;;;;6212279;23;20012;-96
2021/05/16 07:23:20;;;;;;;15.15;7.60;;;8.60;99.90;;;;;;6193178;22;20016;-95
2021/05/16 07:25:46;;;;;;;17.50;8.70;;;8.60;99.90;;;;;;6209742;23;20005;-95
2021/05/16 07:28:15;;;;;;;11.38;7.53;;;8.60;99.90;;;;;;6211946;23;20008;-94
2021/05/16 07:30:47;;;;;;;12.80;7.80;;;8.70;99.90;;;;;;6187418;23;20001;-96
2021/05/16 07:33:20;;;;;;;16.58;7.88;;;8.80;99.90;;;;;;6186216;23;20013;-96
2021/05/16 07:36:09;;;;;;;;;;;8.80;99.90;;;;;;6180455;23;20013;-96
2021/05/16 07:38:37;;;;;;;20.13;6.88;;;9.00;99.90;;;;;;6203917;23;19911;-96
2021/05/16 07:49:45;;;;;;;14.93;5.20;;;9.50;99.90;;;;;;6241144;22;20024;-95
2021/05/16 07:52:15;;;;;;;17.52;5.10;;;9.70;99.90;;;;;;6215233;23;20071;-95
2021/05/16 07:54:45;;;;;;;14.88;5.93;;;9.80;99.90;;;;;;6215587;23;20325;-96
2021/05/16 07:57:33;;;;;;;16.20;5.40;;;9.90;99.90;;;;;;6235898;22;20000;-96
2021/05/16 08:00:10;;;;;;;13.45;4.60;;;10.10;99.90;;;;;;6213515;23;20005;-95
2021/05/16 08:03:05;;;;;;;16.17;4.82;;;10.30;99.90;;;;;;6237439;23;20543;-95
2021/05/16 08:05:37;;;;;;;15.65;4.97;;;10.40;99.90;;;;;;6221905;23;20005;-95
2021/05/16 08:08:19;;;;;;;13.88;4.03;;;10.50;99.90;;;;;;6240799;23;20036;-95
2021/05/16 08:11:05;;;;;;;13.95;3.78;;;10.60;99.90;;;;;;6209479;23;20009;-94
2021/05/16 08:14:13;;;;;;;17.90;4.75;;;10.70;99.90;;;;;;6211491;23;20006;-95
2021/05/16 08:17:01;;;;;;;23.58;3.85;;;10.90;99.90;;;;;;6212260;23;19991;-95
2021/05/16 08:19:37;;;;;;;13.32;3.50;;;11.10;99.90;;;;;;6186955;23;20037;-95
2021/05/16 08:22:10;;;;;;;15.07;2.85;;;11.30;99.90;;;;;;6181882;23;20094;-96
2021/05/16 08:24:43;;;;;;;18.05;3.15;;;11.50;99.90;;;;;;6181949;23;20025;-93
2021/05/16 08:27:08;;;;;;;16.70;3.20;;;11.70;99.90;;;;;;6177478;23;20005;-93
2021/05/16 08:37:41;;;;;;;14.15;2.83;;;12.40;99.90;;;;;;6249686;22;20016;-94
2021/05/16 08:40:21;;;;;;;12.93;2.25;;;12.50;99.90;;;;;;6211755;23;20106;-95
2021/05/16 08:42:58;;;;;;;12.15;2.15;;;12.70;99.90;;;;;;6185776;23;20071;-95
2021/05/16 08:45:31;;;;;;;14.93;2.53;;;12.80;99.90;;;;;;6212337;23;20259;-94
2021/05/16 08:47:59;;;;;;;13.32;2.10;;;12.80;99.90;;;;;;6184920;23;20008;-93
2021/05/16 08:50:31;;;;;;;10.70;1.80;;;12.80;99.90;;;;;;6245649;22;20008;-93
2021/05/16 08:53:01;;;;;;;10.93;1.63;;;12.70;99.90;;;;;;6271864;23;19992;-96
2021/05/16 08:55:37;;;;;;;11.95;2.00;;;12.60;99.90;;;;;;6222941;23;20001;-94
2021/05/16 08:58:26;;;;;;;8.60;1.80;;;12.50;99.90;;;;;;6269718;23;20000;-94
2021/05/16 09:00:55;;;;;;;10.80;1.80;;;12.40;99.90;;;;;;6271373;23;20008;-94
2021/05/16 09:03:35;;;;;;;8.45;1.25;;;12.50;99.90;;;;;;6271629;23;20007;-95
2021/05/16 09:06:02;;;;;;;7.97;2.10;;;12.60;99.90;;;;;;6218964;23;20003;-92
2021/05/16 09:11:27;;;;;;;11.40;1.73;;;12.90;99.90;;;;;;6270633;23;20037;-95
2021/05/16 09:17:46;;;;;;;8.60;1.75;;;13.30;99.90;;;;;;6272316;22;20058;-96
2021/05/16 09:20:23;;;;;;;14.57;2.17;;;13.40;99.90;;;;;;6242585;23;20072;-95
2021/05/16 09:23:10;;;;;;;10.23;2.05;;;13.40;99.90;;;;;;6241076;23;19996;-94
2021/05/16 09:26:05;;;;;;;5.60;1.42;;;13.30;99.90;;;;;;6241123;23;20012;-94
2021/05/16 09:28:36;;;;;;;13.90;2.03;;;13.30;99.90;;;;;;6266603;23;20011;-95
2021/05/16 09:31:17;;;;;;;8.13;2.25;;;13.20;99.90;;;;;;6209635;23;20011;-93
2021/05/16 09:33:46;;;;;;;13.38;1.70;;;13.20;99.90;;;;;;6240298;23;20058;-95
2021/05/16 09:36:15;;;;;;;9.50;1.92;;;13.10;99.90;;;;;;6214915;23;20015;-94
2021/05/16 09:38:42;;;;;;;6.25;1.92;;;13.10;99.90;;;;;;6264217;23;19992;-94
2021/05/16 09:41:36;;;;;;;9.88;2.30;;;13.30;99.90;;;;;;6237761;23;20004;-94
2021/05/16 09:44:33;;;;;;;10.05;1.70;;;13.40;99.90;;;;;;6266470;23;20019;-95
2021/05/16 09:47:33;;;;;;;9.07;1.63;;;13.70;99.90;;;;;;6241764;23;20004;-93
2021/05/16 09:50:09;;;;;;;7.63;1.80;;;14.00;99.90;;;;;;6264438;23;20016;-93
2021/05/16 09:52:55;;;;;;;13.60;2.00;;;14.20;99.90;;;;;;6237761;23;20008;-93
2021/05/16 09:55:22;;;;;;;7.68;1.70;;;14.40;99.90;;;;;;6238020;23;20011;-95
2021/05/16 09:57:51;;;;;;;10.02;2.10;;;14.50;99.90;;;;;;6233816;23;20015;-94
2021/05/16 10:00:18;;;;;;;6.57;1.50;;;14.70;99.50;;;;;;6236803;23;20004;-94
2021/05/16 10:02:47;;;;;;;11.52;1.90;;;14.60;98.40;;;;;;6263190;23;20008;-95
2021/05/16 10:05:14;;;;;;;10.45;2.50;;;14.60;98.20;;;;;;6229279;23;20004;-94
2021/05/16 10:07:41;;;;;;;11.23;2.10;;;14.60;98.00;;;;;;6237083;23;20032;-94
2021/05/16 10:10:12;;;;;;;11.88;1.85;;;14.70;97.90;;;;;;6212165;23;20035;-94
2021/05/16 10:12:39;;;;;;;;;;;14.60;96.80;;;;;;6238007;23;20007;-95
2021/05/16 10:15:24;;;;;;;7.93;1.52;;;14.60;96.80;;;;;;6238878;23;19978;-95
2021/05/16 10:17:56;;;;;;;10.55;1.67;;;14.60;96.70;;;;;;6262376;23;20382;-95
2021/05/16 10:20:27;;;;;;;13.32;1.90;;;14.50;96.60;;;;;;6213985;23;20008;-95
2021/05/16 10:22:58;;;;;;;8.77;1.98;;;14.50;96.50;;;;;;6264347;23;19996;-94
2021/05/16 10:25:48;;;;;;;11.45;1.70;;;14.50;96.50;;;;;;6263934;23;20385;-95
2021/05/16 10:28:22;;;;;;;5.57;1.70;;;14.60;96.50;;;;;;6262776;23;20431;-93
2021/05/16 10:31:14;;;;;;;5.90;1.42;;;14.70;96.40;;;;;;6213783;23;20027;-95
2021/05/16 10:33:44;;;;;;;5.72;1.50;;;14.80;96.00;;;;;;6237190;23;20067;-95
2021/05/16 10:36:11;;;;;;;9.18;1.65;;;14.80;96.00;;;;;;6238274;23;20513;-94
2021/05/16 10:38:49;;;;;;;8.77;1.70;;;14.90;95.80;;;;;;6214792;23;20024;-95
2021/05/16 10:41:25;;;;;;;9.63;1.90;;;14.90;95.50;;;;;;6266498;23;20027;-95
2021/05/16 10:44:29;;;;;;;7.95;1.80;;;15.00;95.10;;;;;;6265248;23;20023;-95
2021/05/16 10:47:03;;;;;;;8.05;1.60;;;15.00;94.00;;;;;;6234046;23;20032;-95
2021/05/16 10:49:35;;;;;;;8.85;1.80;;;15.10;93.70;;;;;;6239313;23;20008;-93
2021/05/16 10:52:28;;;;;;;7.93;1.60;;;15.50;93.30;;;;;;6232662;23;20012;-95
2021/05/16 10:55:07;;;;;;;13.10;1.48;;;15.90;91.90;;;;;;6259009;23;20024;-95
2021/05/16 10:57:40;;;;;;;5.78;1.50;;;16.20;90.10;;;;;;6243215;23;20008;-95
2021/05/16 11:00:24;;;;;;;11.60;2.15;;;16.30;87.80;;;;;;6235368;23;19999;-95
2021/05/16 11:03:08;;;;;;;7.93;2.05;;;16.20;85.60;;;;;;6244630;23;20034;-95
2021/05/16 11:05:54;;;;;;;7.55;2.15;;;16.40;85.30;;;;;;6240588;23;20113;-95
2021/05/16 11:08:23;;;;;;;12.57;2.10;;;16.50;82.60;;;;;;6265911;23;20027;-95
2021/05/16 11:10:52;;;;;;;10.15;3.28;;;16.50;81.00;;;;;;6262825;23;20004;-94
2021/05/16 11:13:31;;;;;;;5.32;1.50;;;16.60;78.70;;;;;;6211159;23;20012;-95
2021/05/16 11:16:09;;;;;;;5.93;1.73;;;16.70;78.80;;;;;;6263853;23;19992;-96
2021/05/16 11:18:47;;;;;;;6.13;1.83;;;16.90;79.00;;;;;;6224607;23;20059;-95
2021/05/16 11:21:18;;;;;;;9.10;1.90;;;17.20;79.30;;;;;;6237908;23;20000;-95
2021/05/16 11:23:53;;;;;;;6.10;1.58;;;17.40;77.50;;;;;;6238723;23;20004;-95
2021/05/16 11:26:30;;;;;;;9.05;1.67;;;17.30;77.10;;;;;;6263421;23;20458;-95
2021/05/16 11:28:59;;;;;;;8.52;1.85;;;17.30;76.50;;;;;;6266146;23;20424;-95
2021/05/16 11:31:31;;;;;;;10.15;2.08;;;17.10;76.00;;;;;;6213021;23;20012;-96
2021/05/16 11:34:04;;;;;;;6.25;1.70;;;17.00;75.70;;;;;;6237402;23;20023;-95
2021/05/16 11:36:36;;;;;;;6.68;1.63;;;17.00;76.80;;;;;;6211072;23;20016;-95
2021/05/16 11:39:08;;;;;;;10.10;1.73;;;16.90;77.10;;;;;;6236248;23;20038;-96
2021/05/16 11:41:45;;;;;;;4.80;1.40;;;16.90;77.50;;;;;;6240907;23;20069;-96
2021/05/16 11:44:26;;;;;;;6.75;1.75;;;17.10;77.90;;;;;;6264555;23;20058;-95
2021/05/16 11:46:53;;;;;;;8.73;1.55;;;17.10;77.30;;;;;;6237902;23;20019;-94
2021/05/16 11:49:27;;;;;;;6.43;1.75;;;17.10;76.70;;;;;;6208735;23;20012;-93
2021/05/16 11:52:00;;;;;;;8.05;1.27;;;17.00;76.40;;;;;;6231499;23;20008;-93
2021/05/16 11:54:34;;;;;;;8.05;1.70;;;17.00;76.60;;;;;;6259935;23;20005;-93
2021/05/16 11:57:00;;;;;;;8.68;1.83;;;16.80;75.70;;;;;;6230760;23;20031;-95
2021/05/16 11:59:30;;;;;;;6.72;1.52;;;16.70;75.50;;;;;;6207310;23;20046;-95
2021/05/16 12:02:02;;;;;;;6.57;1.50;;;16.60;75.40;;;;;;6230861;23;20008;-93
2021/05/16 12:04:37;;;;;;;3.97;1.30;;;16.70;76.40;;;;;;6231402;23;20251;-93
2021/05/16 12:07:04;;;;;;;5.43;0.98;;;16.80;75.40;;;;;;6230578;23;20466;-92
2021/05/16 12:13:24;;;;;;;8.77;1.48;;;17.00;74.00;;;;;;6106619;23;20452;-95
2021/05/16 12:15:53;;;;;;;3.88;1.20;;;17.30;74.10;;;;;;6083174;23;20006;-94
2021/05/16 12:18:43;;;;;;;6.35;1.60;;;17.30;74.30;;;;;;6211121;23;20020;-95
2021/05/16 12:21:09;;;;;;;5.40;1.60;;;16.90;75.00;;;;;;6230201;23;20008;-93
2021/05/16 12:23:36;;;;;;;3.80;1.25;;;16.70;76.10;;;;;;6232031;23;20004;-93
2021/05/16 12:26:03;;;;;;;4.22;1.10;;;16.80;77.20;;;;;;6230894;23;20004;-93
2021/05/16 12:28:29;;;;;;;5.03;1.02;;;16.90;76.20;;;;;;6230873;23;20463;-93
2021/05/16 12:30:56;;;;;;;4.55;1.17;;;16.90;75.10;;;;;;6256554;23;20008;-93
2021/05/16 12:33:22;;;;;;;2.78;1.20;;;16.90;75.40;;;;;;6230530;23;20008;-91
2021/05/16 12:35:51;;;;;;;3.17;0.90;;;16.90;75.70;;;;;;6257989;23;20004;-93
2021/05/16 12:38:17;;;;;;;1.42;0.85;;;16.70;75.80;;;;;;6233095;23;20016;-92
2021/05/16 12:40:44;;;;;;;1.58;0.75;;;16.40;75.80;;;;;;6259903;23;20024;-93
2021/05/16 12:43:14;;;;;;;3.78;0.95;;;16.10;76.50;;;;;;6231174;23;20012;-93
2021/05/16 12:45:43;;;;;;;1.17;0.70;;;15.90;77.20;;;;;;6229784;23;20011;-93
2021/05/16 12:48:19;;;;;;;2.28;0.70;;;15.70;77.90;;;;;;6233481;23;20000;-92
2021/05/16 12:50:50;;;;;;;3.17;0.85;;;15.40;78.00;;;;;;6207298;23;20123;-92
2021/05/16 12:53:26;;;;;;;2.20;0.60;;;15.20;78.80;;;;;;6208121;23;20012;-92
2021/05/16 12:56:13;;;;;;;2.20;0.57;;;15.10;79.50;;;;;;6259302;23;20008;-94
2021/05/16 12:58:52;;;;;;;1.52;0.47;;;15.00;80.00;;;;;;6258076;23;20029;-91
2021/05/16 13:01:23;;;;;;;3.72;0.80;;;15.00;80.20;;;;;;6259063;23;20000;-93
2021/05/16 13:03:59;;;;;;;5.30;0.80;;;14.90;80.80;;;;;;6229139;23;19984;-93
2021/05/16 13:06:29;;;;;;;1.90;0.40;;;14.90;81.30;;;;;;6232658;23;20235;-92
2021/05/16 13:08:56;;;;;;;2.20;0.63;;;14.80;82.20;;;;;;6257093;23;20007;-93
2021/05/16 13:11:23;;;;;;;3.00;0.50;;;14.90;82.60;;;;;;6231709;23;20435;-92
2021/05/16 13:14:04;;;;;;;1.75;0.70;;;15.00;82.50;;;;;;6231560;23;20000;-91
2021/05/16 13:16:39;;;;;;;3.42;1.02;;;15.00;82.20;;;;;;6232914;23;20023;-93
2021/05/16 13:19:06;;;;;;;1.33;1.10;;;15.20;83.10;;;;;;6232982;23;20066;-93
2021/05/16 13:21:32;;;;;;;5.03;0.73;;;15.20;83.70;;;;;;6233422;23;20000;-93
2021/05/16 13:24:07;;;;;;;3.75;0.75;;;15.50;84.80;;;;;;6234605;23;20091;-93
2021/05/16 13:26:58;;;;;;;2.42;1.00;;;15.70;86.30;;;;;;6233577;23;20004;-92
2021/05/16 13:29:29;;;;;;;3.05;1.27;;;15.90;86.50;;;;;;6247212;23;20005;-92
2021/05/16 13:31:56;;;;;;;6.15;1.75;;;16.00;86.70;;;;;;6248182;23;20064;-92
2021/05/16 13:34:28;;;;;;;1.45;0.93;;;16.10;86.40;;;;;;6246338;23;20000;-94
2021/05/16 13:36:56;;;;;;;3.58;0.90;;;16.20;85.50;;;;;;6247692;23;19989;-93
2021/05/16 13:39:24;;;;;;;2.35;1.00;;;16.30;84.10;;;;;;6246847;23;20012;-93
2021/05/16 13:41:50;;;;;;;6.80;2.10;;;16.40;82.50;;;;;;6221537;23;20035;-92
2021/05/16 13:44:17;;;;;;;4.32;1.00;;;16.60;82.50;;;;;;6220652;23;20032;-93
2021/05/16 13:46:43;;;;;;;4.50;1.00;;;16.80;82.00;;;;;;6241216;23;20027;-93
2021/05/16 13:49:21;;;;;;;2.72;0.85;;;17.20;79.80;;;;;;6215229;23;20008;-92
2021/05/16 13:51:47;;;;;;;2.50;0.70;;;17.40;77.10;;;;;;6240384;23;20075;-91
2021/05/16 13:54:16;;;;;;;1.45;0.60;;;17.60;75.30;;;;;;6233413;23;20007;-93
2021/05/16 13:56:45;;;;;;;2.28;0.70;;;17.70;73.70;;;;;;6242066;23;20020;-93
2021/05/16 13:59:11;;;;;;;1.50;0.60;;;17.90;72.80;;;;;;6240527;23;20016;-92
2021/05/16 14:01:39;;;;;;;3.80;0.80;;;18.20;72.70;;;;;;6240687;23;20012;-91
2021/05/16 14:04:07;;;;;;;3.70;0.80;;;18.60;71.00;;;;;;6240238;23;20064;-93
2021/05/16 14:06:34;;;;;;;2.47;0.63;;;18.90;68.80;;;;;;6241817;23;20012;-92
2021/05/16 14:09:03;;;;;;;2.90;0.75;;;19.10;67.40;;;;;;6268120;23;20004;-93
2021/05/16 14:11:29;;;;;;;1.63;0.52;;;19.20;66.20;;;;;;6237989;23;20000;-93
2021/05/16 14:13:54;;;;;;;2.47;0.43;;;19.50;65.70;;;;;;6238256;23;20027;-93
2021/05/16 14:16:21;;;;;;;2.35;0.60;;;19.80;64.90;;;;;;6240644;23;20000;-93
2021/05/16 14:18:50;;;;;;;3.22;0.80;;;20.00;63.60;;;;;;6266274;23;20026;-92
2021/05/16 14:21:29;;;;;;;1.58;0.40;;;20.00;62.70;;;;;;6237548;23;20008;-93
2021/05/16 14:23:55;;;;;;;1.77;0.70;;;20.00;61.90;;;;;;6214703;23;19996;-93
2021/05/16 14:26:23;;;;;;;2.90;1.02;;;19.80;60.60;;;;;;6239643;23;20450;-93
2021/05/16 14:28:49;;;;;;;2.42;0.85;;;19.80;61.30;;;;;;6239193;23;20228;-91
2021/05/16 14:31:16;;;;;;;1.85;0.60;;;19.70;61.10;;;;;;6239886;23;20011;-92
2021/05/16 14:33:45;;;;;;;6.63;0.93;;;19.60;60.40;;;;;;6238656;23;20008;-91
2021/05/16 14:36:14;;;;;;;1.45;0.57;;;19.60;60.60;;;;;;6240314;23;20072;-93
2021/05/16 14:38:39;;;;;;;4.40;1.20;;;19.70;60.90;;;;;;6240090;23;20016;-93
2021/05/16 14:41:06;;;;;;;3.15;0.90;;;19.70;60.50;;;;;;6266825;23;20084;-92
2021/05/16 14:43:37;;;;;;;1.73;0.60;;;19.70;60.70;;;;;;6239772;23;20004;-93
2021/05/16 14:46:08;;;;;;;1.98;0.70;;;19.60;61.10;;;;;;6238517;23;20039;-93
2021/05/16 14:48:40;;;;;;;;;;;19.40;60.80;;;;;;6239522;23;20008;-92
2021/05/16 14:51:17;;;;;;;3.63;0.80;;;19.30;61.40;;;;;;6238638;23;19911;-93
2021/05/16 14:53:43;;;;;;;3.70;0.98;;;19.10;61.60;;;;;;6215682;23;20016;-94
2021/05/16 14:56:09;;;;;;;5.35;1.35;;;18.80;62.70;;;;;;6234321;23;20083;-91
2021/05/16 14:58:49;;;;;;;5.45;1.05;;;18.30;66.10;;;;;;6232624;23;20028;-92
2021/05/16 15:05:03;;;;;;;8.90;2.65;;;17.10;71.30;;;;;;6220663;23;20039;-92
2021/05/16 15:07:31;;;;;;;8.32;1.40;;;16.50;73.50;;;;;;6200881;23;20029;-91
2021/05/16 15:10:00;;;;;;;7.07;1.42;;;16.20;74.60;;;;;;6227796;23;20016;-90
2021/05/16 15:12:26;;;;;;;7.45;1.40;;;16.10;75.60;;;;;;6229875;23;20023;-94
2021/05/16 15:14:55;;;;;;;7.28;1.33;;;16.00;76.30;;;;;;6200513;23;20013;-94
2021/05/16 15:17:26;;;;;;;6.25;1.20;;;16.20;77.00;;;;;;6216865;23;20085;-94
2021/05/16 15:19:54;;;;;;;6.68;1.17;;;16.40;77.20;;;;;;6224519;23;20015;-92
2021/05/16 15:22:23;;;;;;;7.57;1.33;;;16.50;77.40;;;;;;6200307;23;20011;-93
2021/05/16 15:24:49;;;;;;;5.22;1.30;;;16.60;77.70;;;;;;6222870;23;20004;-93
2021/05/16 15:27:17;;;;;;;3.78;1.05;;;16.50;76.70;;;;;;6220943;23;20009;-92
2021/05/16 15:29:43;;;;;;;5.63;1.00;;;16.50;76.60;;;;;;6221691;23;20419;-92
2021/05/16 15:32:10;;;;;;;4.80;1.00;;;16.30;76.50;;;;;;6222832;23;20005;-94
2021/05/16 15:34:37;;;;;;;3.38;0.90;;;16.20;77.00;;;;;;6224231;23;20005;-93
2021/05/16 15:37:03;;;;;;;4.43;0.80;;;16.00;76.40;;;;;;6226034;23;20132;-94
2021/05/16 15:39:38;;;;;;;1.92;1.10;;;16.00;76.50;;;;;;6224964;23;20092;-91
2021/05/16 15:42:05;;;;;;;0.95;0.45;;;16.00;76.90;;;;;;6199065;23;20081;-94
2021/05/16 15:44:32;;;;;;;2.30;0.70;;;16.10;77.00;;;;;;6198554;23;20035;-93
2021/05/16 15:47:27;;;;;;;2.50;0.60;;;16.30;76.40;;;;;;6224360;23;20095;-93
2021/05/16 15:49:53;;;;;;;2.70;0.60;;;16.50;76.20;;;;;;6196958;23;20005;-93
2021/05/16 15:52:20;;;;;;;0.95;0.40;;;16.80;75.70;;;;;;6198015;23;20016;-95
2021/05/16 15:54:45;;;;;;;3.40;0.55;;;17.10;74.80;;;;;;6222747;23;20396;-92
2021/05/16 15:57:17;;;;;;;3.10;0.77;;;17.20;73.80;;;;;;6224006;23;20012;-93
2021/05/16 15:59:43;;;;;;;2.25;0.68;;;17.40;73.70;;;;;;6197969;23;20021;-94
2021/05/16 16:02:09;;;;;;;2.45;0.50;;;17.60;72.80;;;;;;6224189;23;20051;-94
2021/05/16 16:04:37;;;;;;;4.60;0.60;;;17.70;71.90;;;;;;6226522;23;20015;-95
2021/05/16 16:07:02;;;;;;;1.70;0.52;;;17.80;71.00;;;;;;6202438;23;20021;-95
2021/05/16 16:09:33;;;;;;;1.70;0.57;;;17.90;70.60;;;;;;6204506;23;20039;-95
2021/05/16 16:12:00;;;;;;;3.00;1.02;;;17.90;70.30;;;;;;6229306;23;20001;-94
2021/05/16 16:14:26;;;;;;;3.80;0.90;;;18.00;70.20;;;;;;6202686;23;20009;-94
2021/05/16 16:16:52;;;;;;;1.52;0.65;;;18.10;69.80;;;;;;6202856;23;20004;-94
2021/05/16 16:19:17;;;;;;;1.00;0.35;;;18.10;69.00;;;;;;6201653;23;20066;-95
2021/05/16 16:21:44;;;;;;;1.45;0.73;;;18.10;68.40;;;;;;6228518;23;20059;-94
2021/05/16 16:24:11;;;;;;;2.35;0.70;;;18.00;68.40;;;;;;6179411;23;20008;-94
2021/05/16 16:26:41;;;;;;;4.13;1.10;;;17.80;68.40;;;;;;6230805;23;20004;-93
2021/05/16 16:29:06;;;;;;;3.97;0.77;;;17.60;68.20;;;;;;6202794;23;20004;-94
2021/05/16 16:31:35;;;;;;;1.52;0.52;;;17.40;68.50;;;;;;6202312;23;20510;-93
2021/05/16 16:34:01;;;;;;;3.50;0.80;;;17.20;69.60;;;;;;6202963;23;20004;-94
2021/05/16 16:36:28;;;;;;;1.10;0.63;;;17.10;69.00;;;;;;6203141;23;20064;-93
2021/05/16 16:38:55;;;;;;;1.90;0.50;;;17.00;68.60;;;;;;6203360;23;20016;-94
2021/05/16 16:41:21;;;;;;;3.83;0.70;;;17.00;69.10;;;;;;6177040;23;20064;-94
2021/05/16 16:43:51;;;;;;;3.72;0.85;;;16.90;69.40;;;;;;6203211;23;20005;-93
2021/05/16 16:46:17;;;;;;;2.70;0.70;;;17.00;69.50;;;;;;6230645;23;20009;-94
2021/05/16 16:48:42;;;;;;;1.67;0.73;;;17.00;69.30;;;;;;6201551;23;20012;-94
2021/05/16 16:51:08;;;;;;;4.60;0.75;;;17.00;69.30;;;;;;6203483;23;20009;-94
2021/05/16 16:53:34;;;;;;;4.85;1.27;;;17.10;69.70;;;;;;6179041;23;20005;-93
2021/05/16 16:56:01;;;;;;;4.55;1.30;;;17.00;70.50;;;;;;6204235;23;20064;-94
2021/05/16 16:58:34;;;;;;;5.68;1.35;;;17.00;71.80;;;;;;6193337;23;20016;-94
2021/05/16 17:01:08;;;;;;;6.60;1.48;;;16.80;73.00;;;;;;6203411;23;20011;-94
2021/05/16 17:03:37;;;;;;;5.78;1.85;;;16.60;74.30;;;;;;6201731;23;20012;-94
2021/05/16 17:06:04;;;;;;;5.72;2.90;;;16.60;75.40;;;;;;6200773;23;20027;-93
2021/05/16 17:08:30;;;;;;;6.50;2.90;;;16.40;76.50;;;;;;6231686;23;20000;-94
2021/05/16 17:10:55;;;;;;;4.75;2.20;;;16.30;78.00;;;;;;6256082;23;20479;-94
2021/05/16 17:13:21;;;;;;;6.63;2.47;;;16.20;78.90;;;;;;6257616;23;20004;-94
2021/05/16 17:15:47;;;;;;;4.78;2.63;;;16.00;79.50;;;;;;6256578;23;20004;-94
2021/05/16 17:18:16;;;;;;;8.45;2.92;;;16.00;80.60;;;;;;6256741;23;20008;-95
2021/05/16 17:20:46;;;;;;;5.68;2.22;;;15.90;81.00;;;;;;6257950;23;20020;-94
2021/05/16 17:23:13;;;;;;;7.10;3.08;;;15.80;81.80;;;;;;6258031;23;20022;-94
2021/05/16 17:25:39;;;;;;;7.55;2.17;;;15.80;82.40;;;;;;6230360;23;20004;-94
2021/05/16 17:28:08;;;;;;;4.18;1.70;;;15.80;82.90;;;;;;6227898;23;20011;-94
2021/05/16 17:30:37;;;;;;;4.43;1.73;;;15.60;83.30;;;;;;6227489;23;20016;-94
2021/05/16 17:33:06;;;;;;;5.32;1.75;;;15.60;83.90;;;;;;6229938;23;20004;-94
2021/05/16 17:35:32;;;;;;;3.33;1.65;;;15.50;84.40;;;;;;6205341;23;20455;-94
2021/05/16 17:38:01;;;;;;;6.03;1.95;;;15.50;84.70;;;;;;6228836;23;20062;-94
2021/05/16 17:40:30;;;;;;;5.82;2.10;;;15.40;84.90;;;;;;6228123;23;20012;-95
2021/05/16 17:42:57;;;;;;;4.07;2.13;;;15.30;85.40;;;;;;6254606;23;20004;-94
2021/05/16 17:45:27;;;;;;;5.78;1.73;;;15.10;86.00;;;;;;6180072;23;20015;-94
2021/05/16 17:47:58;;;;;;;4.78;2.03;;;15.10;86.60;;;;;;6254568;23;20015;-94
2021/05/16 17:50:47;;;;;;;5.65;1.58;;;15.00;87.10;;;;;;6256792;23;20024;-93
2021/05/16 17:53:17;;;;;;;3.88;1.33;;;14.90;87.90;;;;;;6255331;23;20000;-95
2021/05/16 17:55:45;;;;;;;5.10;2.15;;;14.70;88.20;;;;;;6179508;23;20004;-95
2021/05/16 17:58:11;;;;;;;3.15;1.77;;;14.70;88.80;;;;;;6206280;23;20028;-94
2021/05/16 18:00:45;;;;;;;5.50;1.70;;;14.60;89.30;;;;;;6256274;23;20095;-96
2021/05/16 18:03:15;;;;;;;5.03;1.70;;;14.60;89.50;;;;;;6235689;23;20012;-94
2021/05/16 18:05:44;;;;;;;5.13;1.27;;;14.50;89.80;;;;;;6266962;23;20012;-94
2021/05/16 18:08:12;;;;;;;7.00;1.70;;;14.40;90.00;;;;;;6273092;23;20000;-95
2021/05/16 18:10:43;;;;;;;3.38;1.55;;;14.40;90.10;;;;;;6271183;22;20011;-94
2021/05/16 18:13:10;;;;;;;2.15;1.50;;;14.20;90.20;;;;;;6242694;22;20001;-94
